Time;durP1;ratioP1;P1;durP2;ratioP2;P2;SDS_P1;SDS_P2;PMS_P1;PMS_P2;Temp;Humidity;BMP_temperature;BMP_pressure;BME280_temperature;BME280_humidity;BME280_pressure;Samples;Min_cycle;Max_cycle;Signal;HPM_P1;HPM_P2
2022/01/15 00:02:03;;;;;;;19.20;8.70;;;4.90;59.40;;;;;;5058081;28;20543;-86
2022/01/15 00:04:30;;;;;;;20.07;7.87;;;5.10;59.00;;;;;;5054305;28;20472;-87
2022/01/15 00:06:59;;;;;;;20.37;8.83;;;5.00;58.70;;;;;;5072809;28;20460;-87
2022/01/15 00:09:26;;;;;;;12.60;8.50;;;5.10;58.80;;;;;;5050314;28;20452;-87
2022/01/15 00:11:53;;;;;;;17.83;9.73;;;5.30;58.70;;;;;;5070053;28;20571;-87
2022/01/15 00:14:26;;;;;;;15.10;8.33;;;5.40;58.20;;;;;;5051826;28;20620;-86
2022/01/15 00:17:04;;;;;;;11.80;8.43;;;5.70;57.90;;;;;;5069563;28;20518;-86
2022/01/15 00:19:40;;;;;;;16.10;6.47;;;5.70;57.40;;;;;;5071284;28;20545;-86
2022/01/15 00:22:10;;;;;;;17.13;6.83;;;5.80;57.40;;;;;;5053179;28;21004;-87
2022/01/15 00:24:37;;;;;;;16.47;6.93;;;5.70;57.30;;;;;;5072460;28;20455;-87
2022/01/15 00:27:05;;;;;;;14.20;7.30;;;5.60;57.20;;;;;;5071503;28;20456;-86
2022/01/15 00:29:32;;;;;;;15.37;7.57;;;5.60;57.60;;;;;;5073389;28;20498;-87
2022/01/15 00:32:00;;;;;;;16.43;7.87;;;5.70;57.50;;;;;;5074117;28;20548;-87
2022/01/15 00:34:28;;;;;;;21.17;8.33;;;5.80;57.40;;;;;;5070995;28;20469;-87
2022/01/15 00:36:55;;;;;;;21.10;9.57;;;5.70;57.40;;;;;;5071613;28;20453;-87
2022/01/15 00:39:23;;;;;;;19.70;9.27;;;5.80;57.20;;;;;;5074681;28;20488;-87
2022/01/15 00:41:51;;;;;;;24.97;11.00;;;5.90;57.30;;;;;;5057246;28;20477;-87
2022/01/15 00:44:18;;;;;;;14.20;8.30;;;6.00;57.10;;;;;;5074435;28;20456;-88
2022/01/15 00:46:45;;;;;;;24.77;9.17;;;5.90;56.90;;;;;;5075327;28;20469;-86
2022/01/15 00:49:12;;;;;;;18.27;7.67;;;6.00;57.00;;;;;;5072560;28;20546;-86
2022/01/15 00:51:40;;;;;;;16.43;8.17;;;6.10;56.60;;;;;;5073648;28;20487;-86
2022/01/15 00:54:06;;;;;;;22.97;10.80;;;6.10;56.60;;;;;;5071345;28;20465;-87
2022/01/15 00:56:35;;;;;;;20.33;8.37;;;5.90;56.90;;;;;;5069963;28;20468;-87
2022/01/15 00:59:03;;;;;;;20.87;9.80;;;6.00;57.00;;;;;;5074761;28;20457;-87
2022/01/15 01:01:30;;;;;;;16.60;8.23;;;6.00;57.20;;;;;;5071191;28;20498;-88
2022/01/15 01:03:57;;;;;;;16.73;8.73;;;5.90;57.40;;;;;;5069634;28;20450;-86
2022/01/15 01:06:24;;;;;;;20.83;7.63;;;5.80;57.80;;;;;;5068326;28;20463;-87
2022/01/15 01:08:52;;;;;;;18.80;8.93;;;5.90;57.60;;;;;;5070523;28;20499;-86
2022/01/15 01:11:29;;;;;;;19.30;8.70;;;6.00;57.60;;;;;;5067530;28;20495;-87
2022/01/15 01:22:52;;;;;;;13.70;7.47;;;5.80;58.50;;;;;;5069964;28;20455;-86
2022/01/15 01:25:12;;;;;;;17.07;7.90;;;5.70;58.20;;;;;;5049083;28;20487;-87
2022/01/15 01:27:46;;;;;;;17.17;9.60;;;5.90;58.50;;;;;;5072101;28;21175;-88
2022/01/15 01:30:21;;;;;;;20.73;8.77;;;6.00;58.20;;;;;;5070648;28;20478;-87
2022/01/15 01:32:53;;;;;;;26.40;9.53;;;6.00;58.30;;;;;;5053019;28;20463;-87
2022/01/15 01:35:33;;;;;;;18.23;9.40;;;6.00;58.40;;;;;;5068963;28;20542;-85
2022/01/15 01:38:10;;;;;;;17.93;8.67;;;6.00;58.30;;;;;;5072546;28;20464;-86
2022/01/15 01:40:41;;;;;;;17.67;8.40;;;5.90;58.40;;;;;;5070356;28;20472;-87
2022/01/15 01:43:30;;;;;;;23.90;9.73;;;6.00;58.30;;;;;;5072725;28;20537;-87
2022/01/15 01:46:13;;;;;;;17.70;8.43;;;6.10;58.00;;;;;;5069762;28;21079;-86
2022/01/15 01:48:42;;;;;;;16.90;7.60;;;6.00;58.10;;;;;;5068806;28;20546;-87
2022/01/15 01:51:11;;;;;;;14.87;7.60;;;6.00;58.50;;;;;;5071830;28;20476;-86
2022/01/15 01:53:39;;;;;;;19.10;8.20;;;5.80;58.70;;;;;;5071796;28;20482;-87
2022/01/15 01:56:06;;;;;;;12.10;7.17;;;6.00;58.70;;;;;;5069453;28;20566;-87
2022/01/15 01:58:33;;;;;;;22.53;8.83;;;6.10;58.60;;;;;;5077387;28;20452;-88
2022/01/15 02:01:01;;;;;;;17.27;9.30;;;6.20;58.20;;;;;;5055026;28;20677;-86
2022/01/15 02:03:28;;;;;;;22.30;10.23;;;6.30;57.80;;;;;;5075497;28;20551;-84
2022/01/15 02:05:55;;;;;;;20.67;8.43;;;6.20;58.00;;;;;;5074575;28;20453;-86
2022/01/15 02:08:22;;;;;;;15.13;7.30;;;6.00;58.20;;;;;;5072467;28;20461;-87
2022/01/15 02:10:50;;;;;;;17.37;7.10;;;5.80;58.70;;;;;;5072550;28;20464;-87
2022/01/15 02:13:18;;;;;;;19.70;8.93;;;5.80;59.00;;;;;;5076065;28;20443;-87
2022/01/15 02:15:45;;;;;;;18.63;9.23;;;5.90;59.00;;;;;;5075226;28;20451;-85
2022/01/15 02:18:15;;;;;;;21.73;8.87;;;6.00;58.80;;;;;;5074055;28;21165;-87
2022/01/15 02:21:02;;;;;;;29.03;10.50;;;6.10;58.50;;;;;;5074407;28;20470;-86
2022/01/15 02:23:35;;;;;;;23.30;8.70;;;6.10;58.70;;;;;;5056372;28;20835;-86
2022/01/15 02:26:05;;;;;;;18.63;9.40;;;6.10;58.80;;;;;;5070318;28;20940;-88
2022/01/15 02:28:35;;;;;;;20.50;10.23;;;6.10;58.50;;;;;;5073722;28;20444;-86
2022/01/15 02:31:05;;;;;;;21.53;9.47;;;6.20;58.30;;;;;;5071791;28;20498;-85
2022/01/15 02:33:32;;;;;;;18.53;8.43;;;6.20;58.10;;;;;;5073697;28;20471;-86
2022/01/15 02:36:04;;;;;;;20.60;7.90;;;6.30;57.90;;;;;;5074113;28;20452;-87
2022/01/15 02:38:31;;;;;;;18.53;8.00;;;6.20;57.90;;;;;;5073515;28;20466;-87
2022/01/15 02:40:58;;;;;;;24.30;8.93;;;6.20;58.40;;;;;;5072944;28;20485;-87
2022/01/15 02:43:29;;;;;;;15.13;8.03;;;6.30;58.20;;;;;;5078387;28;20455;-85
2022/01/15 02:45:58;;;;;;;18.80;8.93;;;6.30;58.20;;;;;;5071720;28;20460;-86
2022/01/15 02:48:28;;;;;;;16.93;8.80;;;6.30;58.30;;;;;;5076115;28;20440;-86
2022/01/15 02:50:56;;;;;;;20.50;9.03;;;6.20;58.50;;;;;;5056388;28;20566;-87
2022/01/15 02:53:24;;;;;;;20.17;9.30;;;6.20;58.40;;;;;;5078665;28;20459;-86
2022/01/15 02:55:55;;;;;;;18.93;6.87;;;6.40;58.30;;;;;;5075803;28;20491;-86
2022/01/15 02:58:24;;;;;;;13.90;7.60;;;6.50;58.00;;;;;;5055086;28;20896;-86
2022/01/15 03:00:52;;;;;;;14.33;8.20;;;6.50;57.50;;;;;;5062246;28;20971;-88
2022/01/15 03:03:20;;;;;;;17.73;7.53;;;6.60;57.40;;;;;;5074546;28;20467;-86
2022/01/15 03:05:46;;;;;;;16.03;6.80;;;6.40;57.70;;;;;;5037054;28;20432;-88
2022/01/15 03:08:14;;;;;;;18.33;7.57;;;6.40;57.90;;;;;;5075078;28;20475;-85
2022/01/15 03:10:42;;;;;;;16.43;8.03;;;6.50;57.90;;;;;;5072493;28;20569;-88
2022/01/15 03:13:11;;;;;;;20.90;8.80;;;6.40;58.00;;;;;;5074128;28;20482;-87
2022/01/15 03:15:39;;;;;;;16.23;6.80;;;6.30;58.80;;;;;;5055102;28;20572;-86
2022/01/15 03:18:06;;;;;;;13.30;6.67;;;6.20;58.30;;;;;;5074465;28;20479;-86
2022/01/15 03:20:33;;;;;;;17.43;6.80;;;6.20;58.60;;;;;;5073061;28;21037;-85
2022/01/15 03:23:00;;;;;;;18.97;9.37;;;6.10;58.90;;;;;;5074387;28;20827;-87
2022/01/15 03:25:27;;;;;;;16.33;7.87;;;6.20;58.90;;;;;;5073111;28;20452;-87
2022/01/15 03:27:56;;;;;;;17.30;8.27;;;6.20;58.90;;;;;;5071196;28;21094;-87
2022/01/15 03:30:23;;;;;;;22.97;8.20;;;6.20;58.80;;;;;;5079187;28;20543;-86
2022/01/15 03:32:50;;;;;;;18.70;8.03;;;6.20;59.00;;;;;;5075177;28;20821;-84
2022/01/15 03:35:18;;;;;;;19.00;7.80;;;6.20;59.00;;;;;;5078098;28;20476;-87
2022/01/15 03:37:46;;;;;;;19.63;7.30;;;6.30;58.90;;;;;;5076507;28;20947;-86
2022/01/15 03:40:16;;;;;;;20.10;8.27;;;6.30;58.70;;;;;;5073212;28;20610;-88
2022/01/15 03:42:43;;;;;;;21.13;9.17;;;6.30;58.90;;;;;;5071839;28;20828;-87
2022/01/15 03:45:13;;;;;;;17.97;7.60;;;6.40;58.80;;;;;;5074826;28;20460;-87
2022/01/15 03:47:40;;;;;;;17.77;7.80;;;6.50;58.50;;;;;;5073368;28;21729;-86
2022/01/15 03:50:09;;;;;;;22.43;6.87;;;6.50;58.30;;;;;;5073482;28;20472;-87
2022/01/15 03:52:36;;;;;;;20.93;7.33;;;6.40;58.50;;;;;;5074239;28;20452;-86
2022/01/15 03:55:04;;;;;;;19.37;8.80;;;6.50;58.40;;;;;;5074516;28;20550;-87
2022/01/15 03:57:31;;;;;;;17.20;7.70;;;6.60;58.20;;;;;;5072780;28;20453;-87
2022/01/15 03:59:58;;;;;;;23.50;7.00;;;6.70;58.00;;;;;;5071416;28;20487;-86
2022/01/15 04:02:27;;;;;;;23.40;8.23;;;6.60;58.00;;;;;;5072624;28;20939;-86
2022/01/15 04:04:54;;;;;;;21.03;8.07;;;6.70;58.00;;;;;;5073810;28;20448;-88
2022/01/15 04:07:21;;;;;;;14.07;7.03;;;6.70;57.70;;;;;;5056597;28;20463;-86
2022/01/15 04:09:48;;;;;;;13.97;7.97;;;6.60;58.00;;;;;;5071770;28;20460;-87
2022/01/15 04:12:15;;;;;;;26.77;8.87;;;6.70;58.00;;;;;;5059143;28;20453;-86
2022/01/15 04:14:42;;;;;;;18.40;8.13;;;6.70;57.80;;;;;;5072661;28;20462;-86
2022/01/15 04:17:09;;;;;;;14.40;6.27;;;6.70;57.70;;;;;;5071548;28;20455;-86
2022/01/15 04:19:40;;;;;;;15.53;7.70;;;6.70;58.00;;;;;;5072525;28;20961;-86
2022/01/15 04:22:07;;;;;;;18.90;7.57;;;6.60;58.10;;;;;;5072086;28;20671;-87
2022/01/15 04:24:34;;;;;;;17.13;7.13;;;6.40;58.30;;;;;;5075264;28;20471;-86
2022/01/15 04:27:01;;;;;;;10.83;7.63;;;6.40;58.50;;;;;;5073782;28;20875;-85
2022/01/15 04:29:30;;;;;;;22.70;8.77;;;6.50;58.40;;;;;;5071057;28;20475;-87
2022/01/15 04:31:57;;;;;;;16.73;7.23;;;6.70;58.20;;;;;;5073110;28;20479;-87
2022/01/15 04:34:27;;;;;;;18.20;7.90;;;6.70;57.90;;;;;;5075409;28;20498;-87
2022/01/15 04:37:01;;;;;;;24.97;9.30;;;6.60;58.20;;;;;;5071302;28;21165;-87
2022/01/15 04:39:28;;;;;;;17.20;8.63;;;6.70;58.30;;;;;;5072755;28;20809;-88
2022/01/15 04:41:55;;;;;;;23.03;6.37;;;6.80;58.00;;;;;;5073050;28;20478;-87
2022/01/15 04:44:22;;;;;;;15.07;7.80;;;6.80;57.90;;;;;;5035237;28;20955;-88
2022/01/15 04:46:49;;;;;;;24.07;10.07;;;6.80;57.90;;;;;;5074014;28;20539;-88
2022/01/15 04:49:16;;;;;;;16.70;7.03;;;6.80;57.80;;;;;;5071508;28;20806;-87
2022/01/15 04:51:43;;;;;;;17.80;8.43;;;6.80;57.80;;;;;;5080037;28;20565;-87
2022/01/15 04:54:12;;;;;;;19.60;7.53;;;6.80;57.70;;;;;;5079259;28;20571;-88
2022/01/15 04:56:39;;;;;;;16.40;7.17;;;6.80;57.50;;;;;;5073864;28;20459;-86
2022/01/15 04:59:06;;;;;;;20.43;9.73;;;6.80;57.60;;;;;;5052498;28;20444;-87
2022/01/15 05:01:33;;;;;;;18.70;9.03;;;6.70;58.10;;;;;;5070462;28;20480;-87
2022/01/15 05:04:00;;;;;;;19.47;9.17;;;6.50;58.70;;;;;;5059042;28;20553;-87
2022/01/15 05:06:27;;;;;;;26.33;9.40;;;6.40;59.10;;;;;;5072881;28;21046;-87
2022/01/15 05:09:03;;;;;;;23.83;9.20;;;6.50;58.80;;;;;;5073490;28;20448;-87
2022/01/15 05:11:43;;;;;;;18.77;7.33;;;6.70;58.60;;;;;;5077141;28;20480;-87
2022/01/15 05:14:11;;;;;;;21.90;8.20;;;6.70;58.50;;;;;;5055444;28;20812;-86
2022/01/15 05:16:38;;;;;;;22.27;8.50;;;6.80;58.20;;;;;;5054834;28;21092;-87
2022/01/15 05:19:05;;;;;;;19.50;9.10;;;6.80;58.00;;;;;;5074490;28;20459;-87
2022/01/15 05:21:32;;;;;;;22.57;8.80;;;6.70;58.20;;;;;;5075412;28;20529;-87
2022/01/15 05:23:59;;;;;;;16.20;9.20;;;6.70;58.50;;;;;;5075071;28;20459;-87
2022/01/15 05:26:27;;;;;;;18.40;8.33;;;6.70;58.40;;;;;;5055972;28;20940;-87
2022/01/15 05:28:56;;;;;;;23.53;8.77;;;6.50;58.80;;;;;;5074202;28;20466;-88
2022/01/15 05:31:24;;;;;;;23.53;9.57;;;6.50;59.10;;;;;;5074492;28;20500;-87
2022/01/15 05:33:51;;;;;;;17.77;8.23;;;6.60;58.80;;;;;;5076097;28;20510;-87
2022/01/15 05:36:18;;;;;;;23.20;10.17;;;6.60;58.70;;;;;;5077636;28;20482;-88
2022/01/15 05:38:45;;;;;;;22.20;9.20;;;6.60;58.90;;;;;;5077783;28;20833;-87
2022/01/15 05:41:12;;;;;;;15.43;8.83;;;6.50;59.10;;;;;;5075875;28;20468;-87
2022/01/15 05:43:39;;;;;;;19.17;10.50;;;6.60;58.80;;;;;;5064002;28;21026;-86
2022/01/15 05:46:08;;;;;;;19.70;7.70;;;6.60;58.80;;;;;;5076234;28;20493;-87
2022/01/15 05:48:35;;;;;;;20.07;9.87;;;6.50;59.30;;;;;;5077834;28;20967;-87
2022/01/15 05:51:02;;;;;;;19.70;7.60;;;6.50;59.30;;;;;;5080730;28;20474;-87
2022/01/15 05:53:29;;;;;;;21.80;9.30;;;6.50;59.10;;;;;;5077535;28;20510;-87
2022/01/15 05:55:56;;;;;;;18.80;7.87;;;6.70;59.20;;;;;;5060723;28;20726;-87
2022/01/15 05:58:23;;;;;;;17.63;8.50;;;6.80;58.80;;;;;;5076263;28;20460;-87
2022/01/15 06:00:50;;;;;;;21.87;8.40;;;6.70;58.90;;;;;;5075261;28;20516;-87
2022/01/15 06:03:18;;;;;;;19.63;8.47;;;6.60;59.00;;;;;;5055440;28;20547;-87
2022/01/15 06:05:45;;;;;;;19.90;8.80;;;6.70;59.00;;;;;;5077782;28;20555;-88
2022/01/15 06:08:12;;;;;;;18.17;8.13;;;6.70;59.00;;;;;;5075727;28;20947;-86
2022/01/15 06:10:40;;;;;;;17.63;8.50;;;6.60;58.90;;;;;;5077653;28;20723;-87
2022/01/15 06:13:07;;;;;;;17.57;7.60;;;6.60;59.30;;;;;;5074524;28;20467;-89
2022/01/15 06:15:34;;;;;;;18.87;7.50;;;6.50;59.10;;;;;;5078290;28;20502;-88
2022/01/15 06:18:01;;;;;;;21.50;8.77;;;6.50;59.40;;;;;;5076835;28;20959;-88
2022/01/15 06:20:30;;;;;;;23.70;8.87;;;6.50;59.50;;;;;;5077428;28;20563;-86
2022/01/15 06:22:57;;;;;;;19.70;9.10;;;6.50;59.50;;;;;;5076721;28;20933;-87
2022/01/15 06:25:24;;;;;;;22.77;10.03;;;6.50;59.50;;;;;;5075261;28;20525;-86
2022/01/15 06:27:51;;;;;;;23.27;9.47;;;6.60;59.60;;;;;;5071840;28;20901;-88
2022/01/15 06:30:18;;;;;;;15.87;8.10;;;6.70;59.30;;;;;;5057877;28;20507;-87
2022/01/15 06:32:45;;;;;;;18.97;8.80;;;6.80;59.00;;;;;;5077223;28;20813;-86
2022/01/15 06:35:16;;;;;;;22.43;9.07;;;6.80;58.70;;;;;;5073931;28;20480;-87
2022/01/15 06:37:47;;;;;;;26.67;9.97;;;6.70;59.10;;;;;;5075289;28;20694;-87
2022/01/15 06:40:15;;;;;;;22.40;8.33;;;6.70;59.30;;;;;;5074070;28;20488;-88
2022/01/15 06:42:43;;;;;;;27.97;10.57;;;6.70;59.30;;;;;;5059397;28;20469;-87
2022/01/15 06:45:11;;;;;;;27.43;8.27;;;6.70;59.30;;;;;;5073329;28;20463;-89
2022/01/15 06:47:38;;;;;;;24.73;11.80;;;6.80;59.10;;;;;;5059854;28;20456;-88
2022/01/15 06:50:08;;;;;;;23.97;9.40;;;6.80;59.00;;;;;;5074300;28;20475;-87
2022/01/15 06:52:36;;;;;;;31.43;10.37;;;6.80;59.00;;;;;;5075224;28;20509;-88
2022/01/15 06:55:06;;;;;;;22.37;11.23;;;6.90;58.80;;;;;;5079257;28;20470;-88
2022/01/15 06:57:33;;;;;;;30.90;10.97;;;6.80;58.90;;;;;;5078393;28;20491;-87
2022/01/15 07:00:02;;;;;;;21.33;12.07;;;6.80;59.00;;;;;;5076740;28;22355;-87
2022/01/15 07:02:30;;;;;;;29.10;10.87;;;6.90;58.90;;;;;;5075272;28;20918;-86
2022/01/15 07:04:57;;;;;;;24.17;10.90;;;6.90;58.60;;;;;;5074443;28;20470;-86
2022/01/15 07:07:25;;;;;;;21.90;9.93;;;7.00;58.50;;;;;;5073266;28;20521;-86
2022/01/15 07:09:52;;;;;;;24.10;9.40;;;6.90;58.60;;;;;;5079157;28;20460;-87
2022/01/15 07:12:20;;;;;;;22.60;8.93;;;6.80;59.00;;;;;;5049772;28;20444;-86
2022/01/15 07:14:47;;;;;;;32.07;9.33;;;6.90;58.80;;;;;;5080127;28;20484;-87
2022/01/15 07:17:14;;;;;;;20.30;9.33;;;7.00;58.60;;;;;;5076025;28;20466;-87
2022/01/15 07:19:41;;;;;;;21.07;9.53;;;6.90;58.50;;;;;;5076140;28;20467;-87
2022/01/15 07:22:09;;;;;;;25.90;10.50;;;6.80;58.90;;;;;;5077112;28;20575;-86
2022/01/15 07:24:36;;;;;;;27.53;11.63;;;6.90;59.00;;;;;;5074681;28;20554;-87
2022/01/15 07:27:04;;;;;;;22.13;9.70;;;7.00;58.70;;;;;;5073370;28;20455;-86
2022/01/15 07:29:36;;;;;;;18.80;8.93;;;7.00;58.80;;;;;;5066723;28;20967;-88
2022/01/15 07:32:04;;;;;;;25.60;8.87;;;6.90;58.90;;;;;;5078670;28;20589;-87
2022/01/15 07:34:31;;;;;;;27.83;9.53;;;6.80;59.20;;;;;;5073179;28;20796;-88
2022/01/15 07:36:58;;;;;;;28.57;10.57;;;6.70;59.50;;;;;;5073381;28;20470;-85
2022/01/15 07:39:27;;;;;;;33.77;12.53;;;6.60;59.90;;;;;;5074602;28;20803;-85
2022/01/15 07:41:55;;;;;;;25.67;9.73;;;6.70;59.50;;;;;;5052725;28;20479;-86
2022/01/15 07:44:22;;;;;;;32.07;12.50;;;6.70;59.80;;;;;;5073516;28;20460;-86
2022/01/15 07:46:51;;;;;;;24.93;11.00;;;6.70;59.80;;;;;;5071663;28;20455;-86
2022/01/15 07:49:18;;;;;;;29.17;12.87;;;6.80;59.60;;;;;;5053518;28;20525;-87
2022/01/15 07:51:45;;;;;;;24.73;11.93;;;6.90;59.20;;;;;;5073734;28;20474;-87
2022/01/15 07:54:12;;;;;;;31.60;12.47;;;7.00;58.90;;;;;;5068417;28;20809;-87
2022/01/15 07:56:39;;;;;;;28.77;11.90;;;7.10;58.60;;;;;;5069884;28;20556;-86
2022/01/15 07:59:06;;;;;;;26.60;10.67;;;7.20;58.50;;;;;;5071713;28;20481;-86
2022/01/15 08:01:33;;;;;;;30.60;11.20;;;7.10;58.30;;;;;;5056641;28;20479;-86
2022/01/15 08:04:03;;;;;;;26.90;11.70;;;7.10;58.40;;;;;;5070896;28;20480;-86
2022/01/15 08:06:30;;;;;;;25.70;9.40;;;7.20;58.40;;;;;;5073271;28;20551;-86
2022/01/15 08:08:57;;;;;;;51.30;17.80;;;7.20;58.30;;;;;;5071264;28;20539;-86
2022/01/15 08:11:24;;;;;;;25.23;12.87;;;7.20;58.30;;;;;;5071526;28;20472;-86
2022/01/15 08:13:51;;;;;;;26.83;11.33;;;7.20;58.20;;;;;;5069182;28;20818;-86
2022/01/15 08:16:18;;;;;;;21.43;12.30;;;7.30;58.20;;;;;;5070537;28;20477;-86
2022/01/15 08:18:45;;;;;;;28.37;11.27;;;7.10;59.20;;;;;;5067605;28;20456;-86
2022/01/15 08:21:13;;;;;;;27.87;12.30;;;7.10;58.50;;;;;;5072880;28;20491;-86
2022/01/15 08:23:40;;;;;;;27.50;14.13;;;7.20;58.40;;;;;;5072148;28;20840;-86
2022/01/15 08:26:07;;;;;;;26.00;12.10;;;7.10;58.70;;;;;;5071437;28;20451;-83
2022/01/15 08:28:37;;;;;;;20.80;10.07;;;7.10;58.60;;;;;;5071074;28;20452;-85
2022/01/15 08:31:05;;;;;;;25.37;11.67;;;7.00;58.90;;;;;;5069808;28;20503;-86
2022/01/15 08:33:32;;;;;;;22.03;10.83;;;7.10;58.90;;;;;;5071205;28;20453;-87
2022/01/15 08:35:59;;;;;;;26.43;11.07;;;7.20;58.70;;;;;;5070383;28;20468;-87
2022/01/15 08:38:28;;;;;;;30.23;10.97;;;7.20;58.40;;;;;;5071793;28;20486;-87
2022/01/15 08:40:55;;;;;;;42.40;19.30;;;7.30;58.40;;;;;;5069924;28;21016;-87
2022/01/15 08:43:22;;;;;;;28.57;14.50;;;7.30;58.40;;;;;;5067343;28;20680;-87
2022/01/15 08:45:49;;;;;;;29.57;12.90;;;7.30;58.50;;;;;;5071352;28;20543;-87
2022/01/15 08:48:19;;;;;;;32.80;12.70;;;7.40;58.60;;;;;;5072389;28;20542;-88
2022/01/15 08:50:47;;;;;;;31.97;11.60;;;7.40;58.30;;;;;;5076270;28;20499;-87
2022/01/15 08:53:16;;;;;;;33.17;11.63;;;7.30;58.40;;;;;;5074394;28;20448;-87
2022/01/15 08:55:45;;;;;;;38.70;14.63;;;7.40;58.20;;;;;;5077779;28;20473;-88
2022/01/15 08:58:12;;;;;;;29.53;12.63;;;7.40;57.80;;;;;;5043470;28;20486;-88
2022/01/15 09:00:40;;;;;;;26.00;13.07;;;7.40;57.90;;;;;;5075747;28;20456;-89
2022/01/15 09:03:08;;;;;;;24.43;11.30;;;7.40;58.40;;;;;;5076034;28;20466;-89
2022/01/15 09:05:36;;;;;;;24.53;12.53;;;7.40;58.90;;;;;;5057140;28;20543;-88
2022/01/15 09:08:04;;;;;;;35.30;14.70;;;7.40;58.10;;;;;;5060019;28;20446;-88
2022/01/15 09:10:32;;;;;;;28.93;14.00;;;7.50;58.50;;;;;;5076283;28;20472;-88
2022/01/15 09:13:00;;;;;;;29.17;13.80;;;7.50;58.50;;;;;;5045171;28;20460;-88
2022/01/15 09:15:27;;;;;;;31.07;15.30;;;7.50;58.20;;;;;;5078569;28;20742;-89
2022/01/15 09:17:55;;;;;;;30.80;15.23;;;7.30;58.90;;;;;;5055312;28;20544;-88
2022/01/15 09:20:22;;;;;;;30.10;14.47;;;7.20;59.50;;;;;;5059194;28;20523;-87
2022/01/15 09:22:49;;;;;;;32.10;14.23;;;7.30;59.30;;;;;;5078373;28;20448;-88
2022/01/15 09:25:16;;;;;;;33.97;14.73;;;7.30;59.10;;;;;;5058255;28;20461;-88
2022/01/15 09:30:43;;;;;;;33.73;17.00;;;7.20;59.80;;;;;;5015091;28;20482;-88
2022/01/15 09:33:10;;;;;;;33.30;13.70;;;7.00;60.10;;;;;;5014639;28;20867;-88
2022/01/15 09:35:38;;;;;;;31.67;14.90;;;7.00;60.40;;;;;;5025536;28;20525;-88
2022/01/15 09:38:06;;;;;;;43.13;16.27;;;7.10;60.30;;;;;;5079958;28;20451;-89
2022/01/15 09:40:33;;;;;;;37.87;15.80;;;7.20;59.90;;;;;;5076034;28;20955;-87
2022/01/15 09:43:00;;;;;;;42.87;20.53;;;7.30;59.80;;;;;;5074392;28;20452;-87
2022/01/15 09:45:27;;;;;;;37.57;16.07;;;7.30;59.80;;;;;;5054420;28;20948;-88
2022/01/15 09:48:00;;;;;;;40.00;17.47;;;7.30;59.80;;;;;;5077892;28;20459;-88
2022/01/15 09:50:29;;;;;;;31.90;16.13;;;7.40;59.80;;;;;;5056377;28;20952;-88
2022/01/15 09:52:57;;;;;;;43.03;18.67;;;7.40;59.70;;;;;;5072717;28;20448;-88
2022/01/15 09:55:25;;;;;;;41.33;17.43;;;7.40;59.90;;;;;;5057147;28;20882;-88
2022/01/15 09:57:53;;;;;;;42.47;16.27;;;7.40;59.80;;;;;;5076461;28;20464;-87
2022/01/15 10:00:23;;;;;;;38.20;14.70;;;7.30;60.50;;;;;;5075591;28;20909;-87
2022/01/15 10:02:51;;;;;;;43.00;15.87;;;7.30;60.20;;;;;;5075957;28;20448;-88
2022/01/15 10:05:21;;;;;;;42.10;14.27;;;7.40;60.40;;;;;;5058767;28;20462;-89
2022/01/15 10:07:57;;;;;;;38.40;15.20;;;7.50;60.80;;;;;;5069509;28;20466;-89
2022/01/15 10:10:24;;;;;;;32.00;14.07;;;7.50;59.70;;;;;;5060152;28;20555;-86
2022/01/15 10:12:51;;;;;;;30.47;15.03;;;7.40;60.10;;;;;;5060427;28;20550;-86
2022/01/15 10:15:19;;;;;;;29.13;12.80;;;7.50;60.20;;;;;;5076256;28;20548;-86
2022/01/15 10:17:46;;;;;;;38.80;15.03;;;7.60;59.70;;;;;;5071413;28;20550;-86
2022/01/15 10:20:15;;;;;;;26.40;13.77;;;7.70;59.50;;;;;;5073576;28;20469;-85
2022/01/15 10:22:46;;;;;;;28.23;12.23;;;7.90;59.30;;;;;;5074502;28;20451;-87
2022/01/15 10:25:19;;;;;;;37.13;12.90;;;8.00;59.00;;;;;;5074771;28;20456;-86
2022/01/15 10:27:47;;;;;;;33.57;14.07;;;8.00;58.80;;;;;;5076364;28;20452;-86
2022/01/15 10:30:18;;;;;;;34.77;15.90;;;8.00;58.80;;;;;;5074738;28;20484;-86
2022/01/15 10:32:55;;;;;;;31.10;15.77;;;7.90;58.80;;;;;;5074092;28;20456;-86
2022/01/15 10:35:23;;;;;;;30.50;13.60;;;7.90;59.00;;;;;;5074519;28;20459;-85
2022/01/15 10:37:54;;;;;;;23.80;14.20;;;7.70;59.40;;;;;;5055724;28;20476;-85
2022/01/15 10:40:25;;;;;;;40.97;20.37;;;7.50;60.20;;;;;;5074591;28;20468;-85
2022/01/15 10:42:55;;;;;;;31.83;18.77;;;7.60;60.10;;;;;;5079915;28;20457;-86
2022/01/15 10:45:23;;;;;;;22.13;12.80;;;7.50;60.50;;;;;;5077252;28;20459;-85
2022/01/15 10:47:53;;;;;;;22.33;10.70;;;7.70;60.20;;;;;;5072920;28;20539;-86
2022/01/15 10:50:23;;;;;;;16.07;9.07;;;7.80;59.90;;;;;;5071325;28;20481;-84
2022/01/15 10:52:52;;;;;;;21.43;9.70;;;7.30;59.80;;;;;;5045425;28;20805;-86
2022/01/15 10:55:25;;;;;;;21.63;8.93;;;7.30;60.70;;;;;;5076793;28;20580;-86
2022/01/15 10:57:58;;;;;;;13.10;7.90;;;7.30;61.00;;;;;;5078415;28;21017;-85
2022/01/15 11:00:27;;;;;;;16.23;7.70;;;7.40;60.80;;;;;;5077419;28;20514;-86
2022/01/15 11:02:57;;;;;;;16.40;8.27;;;7.60;60.50;;;;;;5074857;28;20556;-86
2022/01/15 11:05:29;;;;;;;12.97;7.60;;;7.70;60.10;;;;;;5073761;28;20456;-86
2022/01/15 11:08:07;;;;;;;17.03;7.80;;;7.90;59.90;;;;;;5074752;28;20526;-86
2022/01/15 11:10:41;;;;;;;17.70;6.87;;;8.00;59.60;;;;;;5073282;28;20573;-86
2022/01/15 11:13:11;;;;;;;17.60;8.30;;;8.00;59.40;;;;;;5070674;28;20456;-87
2022/01/15 11:15:38;;;;;;;13.83;8.20;;;8.10;59.40;;;;;;5071763;28;20538;-87
2022/01/15 11:18:05;;;;;;;13.10;6.60;;;8.10;59.30;;;;;;5074164;28;20845;-85
2022/01/15 11:20:34;;;;;;;29.43;9.40;;;7.70;59.10;;;;;;5077222;28;20567;-86
2022/01/15 11:23:03;;;;;;;27.30;13.13;;;7.80;59.70;;;;;;5070563;28;20459;-86
2022/01/15 11:25:32;;;;;;;23.00;9.83;;;8.00;59.60;;;;;;5079134;28;20455;-86
2022/01/15 11:28:00;;;;;;;22.57;11.43;;;8.10;59.70;;;;;;5077054;28;20448;-86
2022/01/15 11:30:27;;;;;;;23.83;8.90;;;8.20;59.40;;;;;;5071738;28;21225;-86
2022/01/15 11:32:55;;;;;;;22.73;12.93;;;8.10;59.00;;;;;;5073323;28;20554;-87
2022/01/15 11:35:37;;;;;;;12.70;6.87;;;8.00;58.90;;;;;;5073482;28;20544;-86
2022/01/15 11:38:04;;;;;;;11.40;7.10;;;8.00;59.50;;;;;;5074072;28;20492;-86
2022/01/15 11:40:48;;;;;;;16.73;8.33;;;8.00;59.60;;;;;;5076105;28;20982;-86
2022/01/15 11:43:40;;;;;;;15.40;6.20;;;8.10;59.70;;;;;;5074263;28;20475;-85
2022/01/15 11:46:26;;;;;;;13.00;6.90;;;8.10;59.40;;;;;;5073920;28;20839;-84
2022/01/15 11:49:13;;;;;;;17.20;7.87;;;8.10;59.50;;;;;;5073542;28;20460;-86
2022/01/15 11:51:40;;;;;;;6.87;5.17;;;8.20;59.20;;;;;;5054080;28;20577;-86
2022/01/15 11:54:12;;;;;;;12.83;5.30;;;7.90;59.90;;;;;;5074839;28;20557;-86
2022/01/15 11:56:43;;;;;;;11.63;5.67;;;8.00;59.70;;;;;;5062611;28;20472;-86
2022/01/15 11:59:49;;;;;;;11.93;6.70;;;7.70;59.50;;;;;;5076956;28;20467;-87
2022/01/15 12:02:27;;;;;;;8.97;5.10;;;7.80;59.40;;;;;;5071529;28;20535;-88
2022/01/15 12:04:55;;;;;;;9.27;5.63;;;7.80;60.00;;;;;;5069935;28;20461;-87
2022/01/15 12:07:23;;;;;;;12.17;7.40;;;8.00;59.90;;;;;;5051526;28;20456;-88
2022/01/15 12:09:51;;;;;;;16.63;6.87;;;8.20;59.60;;;;;;5068854;28;20485;-88
2022/01/15 12:12:49;;;;;;;14.80;8.30;;;8.20;59.60;;;;;;5036667;28;20566;-88
2022/01/15 12:15:24;;;;;;;11.17;6.20;;;8.30;59.10;;;;;;5072812;28;20460;-88
2022/01/15 12:17:54;;;;;;;8.47;4.27;;;8.40;58.50;;;;;;5067082;28;20695;-88
2022/01/15 12:20:36;;;;;;;7.00;4.87;;;8.50;58.50;;;;;;5069112;28;20471;-87
2022/01/15 12:23:23;;;;;;;9.47;4.97;;;8.30;58.60;;;;;;5049782;28;20935;-86
2022/01/15 12:25:51;;;;;;;14.90;8.60;;;8.00;59.20;;;;;;5068666;28;20557;-88
2022/01/15 12:28:21;;;;;;;11.43;6.33;;;8.20;59.30;;;;;;5071130;28;20462;-89
2022/01/15 12:30:50;;;;;;;20.83;8.37;;;8.20;59.20;;;;;;5070988;28;20721;-88
2022/01/15 12:33:19;;;;;;;12.93;6.90;;;8.20;59.30;;;;;;5067679;28;20961;-87
2022/01/15 12:35:49;;;;;;;11.33;8.00;;;8.10;59.00;;;;;;5073076;28;20458;-82
2022/01/15 12:38:21;;;;;;;12.27;5.80;;;7.80;59.70;;;;;;5070483;28;20482;-87
2022/01/15 12:40:52;;;;;;;12.83;7.37;;;7.80;60.00;;;;;;5060626;28;21016;-87
2022/01/15 12:43:23;;;;;;;14.63;7.03;;;7.80;59.80;;;;;;5072244;28;20443;-87
2022/01/15 12:45:52;;;;;;;18.73;8.20;;;7.70;60.00;;;;;;5071960;28;20534;-87
2022/01/15 12:48:21;;;;;;;16.20;7.97;;;7.80;59.90;;;;;;5072917;28;20453;-87
2022/01/15 12:50:52;;;;;;;13.23;6.67;;;8.00;60.10;;;;;;5071489;28;20470;-87
2022/01/15 12:53:21;;;;;;;14.20;7.67;;;8.30;59.60;;;;;;5058343;28;20547;-87
2022/01/15 12:55:48;;;;;;;11.30;6.23;;;8.40;59.20;;;;;;5070384;28;20488;-84
2022/01/15 12:58:17;;;;;;;9.30;5.87;;;8.40;58.80;;;;;;5071044;28;21048;-89
2022/01/15 13:00:46;;;;;;;6.83;5.10;;;8.50;58.90;;;;;;5078794;28;20472;-88
2022/01/15 13:03:15;;;;;;;10.13;6.07;;;8.60;59.10;;;;;;5071876;28;20445;-87
2022/01/15 13:05:44;;;;;;;10.43;6.23;;;8.50;58.20;;;;;;5051583;28;20455;-87